sensor_id;sensor_type;location;lat;lon;timestamp;temperature;humidity
27741;DHT22;15134;48.768;9.184;2022-12-07T00:00:17;5.20;99.90
27741;DHT22;15134;48.768;9.184;2022-12-07T00:02:43;5.10;99.90
27741;DHT22;15134;48.768;9.184;2022-12-07T00:05:08;5.10;99.90
27741;DHT22;15134;48.768;9.184;2022-12-07T00:07:34;5.10;99.90
27741;DHT22;15134;48.768;9.184;2022-12-07T00:10:00;5.00;99.90
27741;DHT22;15134;48.768;9.184;2022-12-07T00:12:29;5.10;99.90
27741;DHT22;15134;48.768;9.184;2022-12-07T00:14:54;5.00;99.90
27741;DHT22;15134;48.768;9.184;2022-12-07T00:17:20;5.00;99.90
27741;DHT22;15134;48.768;9.184;2022-12-07T00:19:46;5.10;99.90
27741;DHT22;15134;48.768;9.184;2022-12-07T00:22:12;5.00;99.90
27741;DHT22;15134;48.768;9.184;2022-12-07T00:24:38;5.00;99.90
27741;DHT22;15134;48.768;9.184;2022-12-07T00:27:03;5.00;99.90
27741;DHT22;15134;48.768;9.184;2022-12-07T00:29:29;5.00;99.90
27741;DHT22;15134;48.768;9.184;2022-12-07T00:31:55;5.00;99.90
27741;DHT22;15134;48.768;9.184;2022-12-07T00:34:21;5.10;99.90
27741;DHT22;15134;48.768;9.184;2022-12-07T00:36:47;5.00;99.90
27741;DHT22;15134;48.768;9.184;2022-12-07T00:39:13;4.90;99.90
27741;DHT22;15134;48.768;9.184;2022-12-07T00:41:39;4.90;99.90
27741;DHT22;15134;48.768;9.184;2022-12-07T00:44:11;5.00;99.90
27741;DHT22;15134;48.768;9.184;2022-12-07T00:46:36;5.10;99.90
27741;DHT22;15134;48.768;9.184;2022-12-07T00:49:02;5.10;99.90
27741;DHT22;15134;48.768;9.184;2022-12-07T00:51:28;5.10;99.90
27741;DHT22;15134;48.768;9.184;2022-12-07T00:53:54;5.10;99.90
27741;DHT22;15134;48.768;9.184;2022-12-07T00:56:25;5.10;99.90
27741;DHT22;15134;48.768;9.184;2022-12-07T00:59:13;5.00;99.90
27741;DHT22;15134;48.768;9.184;2022-12-07T01:01:42;5.00;99.90
27741;DHT22;15134;48.768;9.184;2022-12-07T01:04:09;5.00;99.90
27741;DHT22;15134;48.768;9.184;2022-12-07T01:06:35;5.10;99.90
27741;DHT22;15134;48.768;9.184;2022-12-07T01:09:01;5.10;99.90
27741;DHT22;15134;48.768;9.184;2022-12-07T01:11:29;5.00;99.90
27741;DHT22;15134;48.768;9.184;2022-12-07T01:13:57;5.00;99.90
27741;DHT22;15134;48.768;9.184;2022-12-07T01:16:25;4.90;99.90
27741;DHT22;15134;48.768;9.184;2022-12-07T01:18:58;4.90;99.90
27741;DHT22;15134;48.768;9.184;2022-12-07T01:21:25;4.90;99.90
27741;DHT22;15134;48.768;9.184;2022-12-07T01:24:04;4.90;99.90
27741;DHT22;15134;48.768;9.184;2022-12-07T01:26:36;4.90;99.90
27741;DHT22;15134;48.768;9.184;2022-12-07T01:29:02;5.00;99.90
27741;DHT22;15134;48.768;9.184;2022-12-07T01:31:28;5.00;99.90
27741;DHT22;15134;48.768;9.184;2022-12-07T01:33:57;5.00;99.90
27741;DHT22;15134;48.768;9.184;2022-12-07T01:38:53;4.90;99.90
27741;DHT22;15134;48.768;9.184;2022-12-07T01:41:24;4.90;99.90
27741;DHT22;15134;48.768;9.184;2022-12-07T01:44:11;4.90;99.90
27741;DHT22;15134;48.768;9.184;2022-12-07T01:46:37;4.80;99.90
27741;DHT22;15134;48.768;9.184;2022-12-07T01:49:27;4.70;99.90
27741;DHT22;15134;48.768;9.184;2022-12-07T01:52:01;4.70;99.90
27741;DHT22;15134;48.768;9.184;2022-12-07T01:54:34;4.70;99.90
27741;DHT22;15134;48.768;9.184;2022-12-07T01:57:01;4.80;99.90
27741;DHT22;15134;48.768;9.184;2022-12-07T01:59:28;4.90;99.90
27741;DHT22;15134;48.768;9.184;2022-12-07T02:01:54;4.90;99.90
27741;DHT22;15134;48.768;9.184;2022-12-07T02:04:22;4.90;99.90
27741;DHT22;15134;48.768;9.184;2022-12-07T02:06:48;5.00;99.90
27741;DHT22;15134;48.768;9.184;2022-12-07T02:09:14;5.10;99.90
27741;DHT22;15134;48.768;9.184;2022-12-07T02:11:41;5.10;99.90
27741;DHT22;15134;48.768;9.184;2022-12-07T02:14:07;5.00;99.90
27741;DHT22;15134;48.768;9.184;2022-12-07T02:19:48;5.10;99.90
27741;DHT22;15134;48.768;9.184;2022-12-07T02:30:35;5.10;99.90
27741;DHT22;15134;48.768;9.184;2022-12-07T02:33:19;5.00;99.90
27741;DHT22;15134;48.768;9.184;2022-12-07T02:35:55;5.00;99.90
27741;DHT22;15134;48.768;9.184;2022-12-07T02:41:13;5.00;99.90
27741;DHT22;15134;48.768;9.184;2022-12-07T02:43:52;5.10;99.90
27741;DHT22;15134;48.768;9.184;2022-12-07T02:46:22;5.10;99.90
27741;DHT22;15134;48.768;9.184;2022-12-07T02:48:50;5.10;99.90
27741;DHT22;15134;48.768;9.184;2022-12-07T02:51:19;5.10;99.90
27741;DHT22;15134;48.768;9.184;2022-12-07T02:53:45;5.10;99.90
27741;DHT22;15134;48.768;9.184;2022-12-07T03:01:41;5.10;99.90
27741;DHT22;15134;48.768;9.184;2022-12-07T03:04:33;5.10;99.90
27741;DHT22;15134;48.768;9.184;2022-12-07T03:07:20;5.10;99.90
27741;DHT22;15134;48.768;9.184;2022-12-07T03:12:48;5.10;99.90
27741;DHT22;15134;48.768;9.184;2022-12-07T03:15:43;5.00;99.90
27741;DHT22;15134;48.768;9.184;2022-12-07T03:18:13;5.00;99.90
27741;DHT22;15134;48.768;9.184;2022-12-07T03:20:42;5.00;99.90
27741;DHT22;15134;48.768;9.184;2022-12-07T03:23:10;5.00;99.90
27741;DHT22;15134;48.768;9.184;2022-12-07T03:25:46;5.00;99.90
27741;DHT22;15134;48.768;9.184;2022-12-07T03:28:14;5.00;99.90
27741;DHT22;15134;48.768;9.184;2022-12-07T03:30:46;5.00;99.90
27741;DHT22;15134;48.768;9.184;2022-12-07T03:33:26;5.00;99.90
27741;DHT22;15134;48.768;9.184;2022-12-07T03:36:01;5.00;99.90
27741;DHT22;15134;48.768;9.184;2022-12-07T03:38:53;4.90;99.90
27741;DHT22;15134;48.768;9.184;2022-12-07T03:41:25;4.90;99.90
27741;DHT22;15134;48.768;9.184;2022-12-07T03:43:54;4.80;99.90
27741;DHT22;15134;48.768;9.184;2022-12-07T03:54:47;4.80;99.90
27741;DHT22;15134;48.768;9.184;2022-12-07T03:57:14;4.70;99.90
27741;DHT22;15134;48.768;9.184;2022-12-07T03:59:40;4.70;99.90
27741;DHT22;15134;48.768;9.184;2022-12-07T04:02:07;4.70;99.90
27741;DHT22;15134;48.768;9.184;2022-12-07T04:04:36;4.60;99.90
27741;DHT22;15134;48.768;9.184;2022-12-07T04:07:02;4.60;99.90
27741;DHT22;15134;48.768;9.184;2022-12-07T04:09:28;4.60;99.90
27741;DHT22;15134;48.768;9.184;2022-12-07T04:11:54;4.60;99.90
27741;DHT22;15134;48.768;9.184;2022-12-07T04:14:19;4.60;99.90
27741;DHT22;15134;48.768;9.184;2022-12-07T04:16:50;4.60;99.90
27741;DHT22;15134;48.768;9.184;2022-12-07T04:19:17;4.60;99.90
27741;DHT22;15134;48.768;9.184;2022-12-07T04:21:44;4.60;99.90
27741;DHT22;15134;48.768;9.184;2022-12-07T04:24:11;4.60;99.90
27741;DHT22;15134;48.768;9.184;2022-12-07T04:26:37;4.60;99.90
27741;DHT22;15134;48.768;9.184;2022-12-07T04:29:02;4.60;99.90
27741;DHT22;15134;48.768;9.184;2022-12-07T04:31:28;4.60;99.90
27741;DHT22;15134;48.768;9.184;2022-12-07T04:34:00;4.60;99.90
27741;DHT22;15134;48.768;9.184;2022-12-07T04:36:26;4.60;99.90
27741;DHT22;15134;48.768;9.184;2022-12-07T04:38:53;4.60;99.90
27741;DHT22;15134;48.768;9.184;2022-12-07T04:41:19;4.60;99.90
27741;DHT22;15134;48.768;9.184;2022-12-07T04:44:03;4.50;99.90
27741;DHT22;15134;48.768;9.184;2022-12-07T04:46:35;4.50;99.90
27741;DHT22;15134;48.768;9.184;2022-12-07T04:49:01;4.50;99.90
27741;DHT22;15134;48.768;9.184;2022-12-07T04:51:28;4.60;99.90
27741;DHT22;15134;48.768;9.184;2022-12-07T04:53:55;4.60;99.90
27741;DHT22;15134;48.768;9.184;2022-12-07T04:56:22;4.60;99.90
27741;DHT22;15134;48.768;9.184;2022-12-07T04:58:51;4.60;99.90
27741;DHT22;15134;48.768;9.184;2022-12-07T05:01:17;4.60;99.90
27741;DHT22;15134;48.768;9.184;2022-12-07T05:03:46;4.60;99.90
27741;DHT22;15134;48.768;9.184;2022-12-07T05:06:12;4.50;99.90
27741;DHT22;15134;48.768;9.184;2022-12-07T05:08:38;4.50;99.90
27741;DHT22;15134;48.768;9.184;2022-12-07T05:11:06;4.50;99.90
27741;DHT22;15134;48.768;9.184;2022-12-07T05:13:33;4.50;99.90
27741;DHT22;15134;48.768;9.184;2022-12-07T05:15:59;4.50;99.90
27741;DHT22;15134;48.768;9.184;2022-12-07T05:18:25;4.50;99.90
27741;DHT22;15134;48.768;9.184;2022-12-07T05:20:51;4.50;99.90
27741;DHT22;15134;48.768;9.184;2022-12-07T05:23:17;4.50;99.90
27741;DHT22;15134;48.768;9.184;2022-12-07T05:25:44;4.50;99.90
27741;DHT22;15134;48.768;9.184;2022-12-07T05:28:10;4.40;99.90
27741;DHT22;15134;48.768;9.184;2022-12-07T05:30:36;4.40;99.90
27741;DHT22;15134;48.768;9.184;2022-12-07T05:33:02;4.50;99.90
27741;DHT22;15134;48.768;9.184;2022-12-07T05:35:28;4.50;99.90
27741;DHT22;15134;48.768;9.184;2022-12-07T05:37:55;4.50;99.90
27741;DHT22;15134;48.768;9.184;2022-12-07T05:40:20;4.50;99.90
27741;DHT22;15134;48.768;9.184;2022-12-07T05:42:50;4.30;99.90
27741;DHT22;15134;48.768;9.184;2022-12-07T05:45:16;4.20;99.90
27741;DHT22;15134;48.768;9.184;2022-12-07T05:47:42;4.10;99.90
27741;DHT22;15134;48.768;9.184;2022-12-07T05:50:08;4.10;99.90
27741;DHT22;15134;48.768;9.184;2022-12-07T05:52:34;4.10;99.90
27741;DHT22;15134;48.768;9.184;2022-12-07T05:55:01;3.90;99.90
27741;DHT22;15134;48.768;9.184;2022-12-07T05:57:26;3.90;99.90
27741;DHT22;15134;48.768;9.184;2022-12-07T05:59:52;3.90;99.90
27741;DHT22;15134;48.768;9.184;2022-12-07T06:02:18;3.90;99.90
27741;DHT22;15134;48.768;9.184;2022-12-07T06:04:48;3.90;99.90
27741;DHT22;15134;48.768;9.184;2022-12-07T06:07:16;3.90;99.90
27741;DHT22;15134;48.768;9.184;2022-12-07T06:09:42;4.00;99.90
27741;DHT22;15134;48.768;9.184;2022-12-07T06:12:13;4.10;99.90
27741;DHT22;15134;48.768;9.184;2022-12-07T06:15:00;4.10;99.90
27741;DHT22;15134;48.768;9.184;2022-12-07T06:17:26;4.20;99.90
27741;DHT22;15134;48.768;9.184;2022-12-07T06:19:52;4.20;99.90
27741;DHT22;15134;48.768;9.184;2022-12-07T06:22:18;4.30;99.90
27741;DHT22;15134;48.768;9.184;2022-12-07T06:24:44;4.30;99.90
27741;DHT22;15134;48.768;9.184;2022-12-07T06:27:10;4.30;99.90
27741;DHT22;15134;48.768;9.184;2022-12-07T06:29:35;4.30;99.90
27741;DHT22;15134;48.768;9.184;2022-12-07T06:32:03;4.30;99.90
27741;DHT22;15134;48.768;9.184;2022-12-07T06:34:29;4.30;99.90
27741;DHT22;15134;48.768;9.184;2022-12-07T06:36:57;4.40;99.90
27741;DHT22;15134;48.768;9.184;2022-12-07T06:39:28;4.40;99.90
27741;DHT22;15134;48.768;9.184;2022-12-07T06:41:57;4.40;99.90
27741;DHT22;15134;48.768;9.184;2022-12-07T06:44:26;4.50;99.90
27741;DHT22;15134;48.768;9.184;2022-12-07T06:46:52;4.50;99.90
27741;DHT22;15134;48.768;9.184;2022-12-07T06:49:17;4.50;99.90
27741;DHT22;15134;48.768;9.184;2022-12-07T06:51:46;4.50;99.90
27741;DHT22;15134;48.768;9.184;2022-12-07T06:54:15;4.50;99.90
27741;DHT22;15134;48.768;9.184;2022-12-07T06:56:41;4.50;99.90
27741;DHT22;15134;48.768;9.184;2022-12-07T06:59:07;4.40;99.90
27741;DHT22;15134;48.768;9.184;2022-12-07T07:01:34;4.40;99.90
27741;DHT22;15134;48.768;9.184;2022-12-07T07:04:00;4.30;99.90
27741;DHT22;15134;48.768;9.184;2022-12-07T07:06:27;4.30;99.90
27741;DHT22;15134;48.768;9.184;2022-12-07T07:08:52;4.20;99.90
27741;DHT22;15134;48.768;9.184;2022-12-07T07:11:18;4.30;99.90
27741;DHT22;15134;48.768;9.184;2022-12-07T07:13:45;4.30;99.90
27741;DHT22;15134;48.768;9.184;2022-12-07T07:16:11;4.20;99.90
27741;DHT22;15134;48.768;9.184;2022-12-07T07:18:36;4.30;99.90
27741;DHT22;15134;48.768;9.184;2022-12-07T07:21:02;4.30;99.90
27741;DHT22;15134;48.768;9.184;2022-12-07T07:23:28;4.30;99.90
27741;DHT22;15134;48.768;9.184;2022-12-07T07:25:54;4.30;99.90
27741;DHT22;15134;48.768;9.184;2022-12-07T07:28:21;4.30;99.90
27741;DHT22;15134;48.768;9.184;2022-12-07T07:30:47;4.30;99.90
27741;DHT22;15134;48.768;9.184;2022-12-07T07:33:13;4.30;99.90
27741;DHT22;15134;48.768;9.184;2022-12-07T07:35:39;4.30;99.90
27741;DHT22;15134;48.768;9.184;2022-12-07T07:38:05;4.30;99.90
27741;DHT22;15134;48.768;9.184;2022-12-07T07:40:30;4.30;99.90
27741;DHT22;15134;48.768;9.184;2022-12-07T07:42:56;4.40;99.90
27741;DHT22;15134;48.768;9.184;2022-12-07T07:45:23;4.40;99.90
27741;DHT22;15134;48.768;9.184;2022-12-07T07:47:49;4.50;99.90
27741;DHT22;15134;48.768;9.184;2022-12-07T07:50:15;4.60;99.90
27741;DHT22;15134;48.768;9.184;2022-12-07T07:52:41;4.60;99.90
27741;DHT22;15134;48.768;9.184;2022-12-07T07:55:07;4.60;99.90
27741;DHT22;15134;48.768;9.184;2022-12-07T07:57:37;4.70;99.90
27741;DHT22;15134;48.768;9.184;2022-12-07T08:00:05;4.70;99.90
27741;DHT22;15134;48.768;9.184;2022-12-07T08:02:37;4.70;99.90
27741;DHT22;15134;48.768;9.184;2022-12-07T08:05:04;4.70;99.90
27741;DHT22;15134;48.768;9.184;2022-12-07T08:07:30;4.70;99.90
27741;DHT22;15134;48.768;9.184;2022-12-07T08:09:56;4.80;99.90
27741;DHT22;15134;48.768;9.184;2022-12-07T08:12:21;4.80;99.90
27741;DHT22;15134;48.768;9.184;2022-12-07T08:14:50;4.90;99.90
27741;DHT22;15134;48.768;9.184;2022-12-07T08:17:16;4.90;99.90
27741;DHT22;15134;48.768;9.184;2022-12-07T08:19:42;5.00;99.90
27741;DHT22;15134;48.768;9.184;2022-12-07T08:22:08;5.10;99.90
27741;DHT22;15134;48.768;9.184;2022-12-07T08:24:34;5.10;99.90
27741;DHT22;15134;48.768;9.184;2022-12-07T08:27:01;5.20;99.90
27741;DHT22;15134;48.768;9.184;2022-12-07T08:29:26;5.20;99.90
27741;DHT22;15134;48.768;9.184;2022-12-07T08:31:52;5.30;99.90
27741;DHT22;15134;48.768;9.184;2022-12-07T08:34:18;5.40;99.90
27741;DHT22;15134;48.768;9.184;2022-12-07T08:36:44;5.40;99.90
27741;DHT22;15134;48.768;9.184;2022-12-07T08:39:10;5.40;99.90
27741;DHT22;15134;48.768;9.184;2022-12-07T08:41:35;5.40;99.90
27741;DHT22;15134;48.768;9.184;2022-12-07T08:44:07;5.50;99.90
27741;DHT22;15134;48.768;9.184;2022-12-07T08:46:46;5.50;99.90
27741;DHT22;15134;48.768;9.184;2022-12-07T08:49:24;5.60;99.90
27741;DHT22;15134;48.768;9.184;2022-12-07T08:51:52;5.60;99.90
27741;DHT22;15134;48.768;9.184;2022-12-07T08:54:18;5.70;99.90
27741;DHT22;15134;48.768;9.184;2022-12-07T08:56:47;5.70;99.90
27741;DHT22;15134;48.768;9.184;2022-12-07T08:59:15;5.80;99.90
27741;DHT22;15134;48.768;9.184;2022-12-07T09:01:41;5.80;99.90
27741;DHT22;15134;48.768;9.184;2022-12-07T09:04:06;5.80;99.90
27741;DHT22;15134;48.768;9.184;2022-12-07T09:06:35;5.80;99.90
27741;DHT22;15134;48.768;9.184;2022-12-07T09:09:02;5.80;99.90
27741;DHT22;15134;48.768;9.184;2022-12-07T09:11:28;5.80;99.90
27741;DHT22;15134;48.768;9.184;2022-12-07T09:13:54;5.80;99.90
27741;DHT22;15134;48.768;9.184;2022-12-07T09:16:19;5.80;99.90
27741;DHT22;15134;48.768;9.184;2022-12-07T09:18:45;5.80;99.90
27741;DHT22;15134;48.768;9.184;2022-12-07T09:21:11;5.80;99.90
27741;DHT22;15134;48.768;9.184;2022-12-07T09:23:37;5.80;99.90
27741;DHT22;15134;48.768;9.184;2022-12-07T09:26:04;5.90;99.90
27741;DHT22;15134;48.768;9.184;2022-12-07T09:28:31;5.90;99.90
27741;DHT22;15134;48.768;9.184;2022-12-07T09:30:59;6.00;99.90
27741;DHT22;15134;48.768;9.184;2022-12-07T09:33:25;6.10;99.90
27741;DHT22;15134;48.768;9.184;2022-12-07T09:35:51;6.20;99.90
27741;DHT22;15134;48.768;9.184;2022-12-07T09:38:18;6.20;99.90
27741;DHT22;15134;48.768;9.184;2022-12-07T09:40:53;6.30;99.90
27741;DHT22;15134;48.768;9.184;2022-12-07T09:43:22;6.30;99.90
27741;DHT22;15134;48.768;9.184;2022-12-07T09:45:53;6.40;99.90
27741;DHT22;15134;48.768;9.184;2022-12-07T09:48:34;6.50;99.90
27741;DHT22;15134;48.768;9.184;2022-12-07T09:51:24;6.60;99.90
27741;DHT22;15134;48.768;9.184;2022-12-07T09:53:54;6.60;99.90
27741;DHT22;15134;48.768;9.184;2022-12-07T09:56:22;6.70;99.90
27741;DHT22;15134;48.768;9.184;2022-12-07T09:58:50;6.70;99.90
27741;DHT22;15134;48.768;9.184;2022-12-07T10:01:21;6.70;99.90
27741;DHT22;15134;48.768;9.184;2022-12-07T10:03:50;6.70;99.90
27741;DHT22;15134;48.768;9.184;2022-12-07T10:06:17;6.80;99.90
27741;DHT22;15134;48.768;9.184;2022-12-07T10:08:43;6.70;99.90
27741;DHT22;15134;48.768;9.184;2022-12-07T10:11:09;6.70;99.90
27741;DHT22;15134;48.768;9.184;2022-12-07T10:13:42;6.70;99.90
27741;DHT22;15134;48.768;9.184;2022-12-07T10:16:40;6.70;99.90
27741;DHT22;15134;48.768;9.184;2022-12-07T10:19:31;6.60;99.90
27741;DHT22;15134;48.768;9.184;2022-12-07T10:22:23;6.70;99.90
27741;DHT22;15134;48.768;9.184;2022-12-07T10:24:49;6.70;99.90
27741;DHT22;15134;48.768;9.184;2022-12-07T10:27:31;6.60;99.90
27741;DHT22;15134;48.768;9.184;2022-12-07T10:29:59;6.60;99.90
27741;DHT22;15134;48.768;9.184;2022-12-07T10:32:31;6.70;99.90
27741;DHT22;15134;48.768;9.184;2022-12-07T10:35:22;6.70;99.90
27741;DHT22;15134;48.768;9.184;2022-12-07T10:37:49;6.70;99.90
27741;DHT22;15134;48.768;9.184;2022-12-07T10:40:33;6.80;99.90
27741;DHT22;15134;48.768;9.184;2022-12-07T10:43:18;6.80;99.90
27741;DHT22;15134;48.768;9.184;2022-12-07T10:51:23;6.70;99.90
27741;DHT22;15134;48.768;9.184;2022-12-07T10:53:59;6.70;99.90
27741;DHT22;15134;48.768;9.184;2022-12-07T10:56:35;6.60;99.90
27741;DHT22;15134;48.768;9.184;2022-12-07T11:06:51;6.20;99.90
27741;DHT22;15134;48.768;9.184;2022-12-07T11:13:09;6.10;99.90
27741;DHT22;15134;48.768;9.184;2022-12-07T11:15:36;6.10;99.90
27741;DHT22;15134;48.768;9.184;2022-12-07T11:18:20;6.10;99.90
27741;DHT22;15134;48.768;9.184;2022-12-07T11:21:29;6.20;99.90
27741;DHT22;15134;48.768;9.184;2022-12-07T11:26:47;6.20;99.90
27741;DHT22;15134;48.768;9.184;2022-12-07T11:32:37;6.30;99.90
27741;DHT22;15134;48.768;9.184;2022-12-07T11:35:03;6.30;99.90
27741;DHT22;15134;48.768;9.184;2022-12-07T11:37:34;6.30;99.90
27741;DHT22;15134;48.768;9.184;2022-12-07T11:40:29;6.30;99.90
27741;DHT22;15134;48.768;9.184;2022-12-07T11:43:09;6.30;99.90
27741;DHT22;15134;48.768;9.184;2022-12-07T11:45:43;6.30;99.90
27741;DHT22;15134;48.768;9.184;2022-12-07T11:48:29;6.20;99.90
27741;DHT22;15134;48.768;9.184;2022-12-07T11:50:59;6.20;99.90
27741;DHT22;15134;48.768;9.184;2022-12-07T11:53:33;6.20;99.90
27741;DHT22;15134;48.768;9.184;2022-12-07T11:56:09;6.20;99.90
27741;DHT22;15134;48.768;9.184;2022-12-07T12:03:49;6.10;99.90
27741;DHT22;15134;48.768;9.184;2022-12-07T12:06:15;6.10;99.90
27741;DHT22;15134;48.768;9.184;2022-12-07T12:22:17;5.90;99.90
27741;DHT22;15134;48.768;9.184;2022-12-07T12:24:48;5.90;99.90
27741;DHT22;15134;48.768;9.184;2022-12-07T12:29:59;5.90;99.90
27741;DHT22;15134;48.768;9.184;2022-12-07T12:32:42;5.80;99.90
27741;DHT22;15134;48.768;9.184;2022-12-07T12:35:34;5.60;99.90
27741;DHT22;15134;48.768;9.184;2022-12-07T12:39:10;5.60;99.90
27741;DHT22;15134;48.768;9.184;2022-12-07T12:51:50;5.70;99.90
27741;DHT22;15134;48.768;9.184;2022-12-07T12:54:27;5.70;99.90
27741;DHT22;15134;48.768;9.184;2022-12-07T12:59:32;5.80;99.90
27741;DHT22;15134;48.768;9.184;2022-12-07T13:26:37;6.00;99.90
27741;DHT22;15134;48.768;9.184;2022-12-07T13:31:38;6.10;99.90
27741;DHT22;15134;48.768;9.184;2022-12-07T13:34:27;6.10;99.90
27741;DHT22;15134;48.768;9.184;2022-12-07T13:36:51;6.00;99.90
27741;DHT22;15134;48.768;9.184;2022-12-07T13:39:23;6.00;99.90
27741;DHT22;15134;48.768;9.184;2022-12-07T13:42:06;5.90;99.90
27741;DHT22;15134;48.768;9.184;2022-12-07T13:44:34;5.80;99.90
27741;DHT22;15134;48.768;9.184;2022-12-07T13:47:18;5.80;99.90
27741;DHT22;15134;48.768;9.184;2022-12-07T13:49:56;5.80;99.90
27741;DHT22;15134;48.768;9.184;2022-12-07T13:52:30;5.90;99.90
27741;DHT22;15134;48.768;9.184;2022-12-07T13:57:22;5.80;99.90
27741;DHT22;15134;48.768;9.184;2022-12-07T13:59:49;5.80;99.90
27741;DHT22;15134;48.768;9.184;2022-12-07T14:02:34;5.70;99.90
27741;DHT22;15134;48.768;9.184;2022-12-07T14:07:34;5.70;99.90
27741;DHT22;15134;48.768;9.184;2022-12-07T14:10:26;5.70;99.90
27741;DHT22;15134;48.768;9.184;2022-12-07T14:12:55;5.80;99.90
27741;DHT22;15134;48.768;9.184;2022-12-07T14:15:28;5.80;99.90
27741;DHT22;15134;48.768;9.184;2022-12-07T14:17:56;5.80;99.90
27741;DHT22;15134;48.768;9.184;2022-12-07T14:22:58;5.90;99.90
27741;DHT22;15134;48.768;9.184;2022-12-07T14:25:26;5.90;99.90
27741;DHT22;15134;48.768;9.184;2022-12-07T14:27:58;5.90;99.90
27741;DHT22;15134;48.768;9.184;2022-12-07T14:30:27;6.00;99.90
27741;DHT22;15134;48.768;9.184;2022-12-07T14:33:01;5.90;99.90
27741;DHT22;15134;48.768;9.184;2022-12-07T14:35:31;5.90;99.90
27741;DHT22;15134;48.768;9.184;2022-12-07T14:38:03;6.00;99.90
27741;DHT22;15134;48.768;9.184;2022-12-07T14:40:29;5.90;99.90
27741;DHT22;15134;48.768;9.184;2022-12-07T14:43:12;5.90;99.90
27741;DHT22;15134;48.768;9.184;2022-12-07T14:45:40;5.90;99.90
27741;DHT22;15134;48.768;9.184;2022-12-07T14:48:07;5.90;99.90
27741;DHT22;15134;48.768;9.184;2022-12-07T14:50:43;5.90;99.90
27741;DHT22;15134;48.768;9.184;2022-12-07T14:53:11;5.90;99.90
27741;DHT22;15134;48.768;9.184;2022-12-07T14:55:40;5.90;99.90
27741;DHT22;15134;48.768;9.184;2022-12-07T14:58:05;5.90;99.90
27741;DHT22;15134;48.768;9.184;2022-12-07T15:00:31;5.80;99.90
27741;DHT22;15134;48.768;9.184;2022-12-07T15:02:58;5.80;99.90
27741;DHT22;15134;48.768;9.184;2022-12-07T15:05:24;5.80;99.90
27741;DHT22;15134;48.768;9.184;2022-12-07T15:07:50;5.80;99.90
27741;DHT22;15134;48.768;9.184;2022-12-07T15:10:25;5.80;99.90
27741;DHT22;15134;48.768;9.184;2022-12-07T15:12:56;5.80;99.90
27741;DHT22;15134;48.768;9.184;2022-12-07T15:15:41;5.90;99.90
27741;DHT22;15134;48.768;9.184;2022-12-07T15:18:07;5.80;99.90
27741;DHT22;15134;48.768;9.184;2022-12-07T15:20:33;5.70;99.90
27741;DHT22;15134;48.768;9.184;2022-12-07T15:22:59;5.70;99.90
27741;DHT22;15134;48.768;9.184;2022-12-07T15:25:24;5.80;99.90
27741;DHT22;15134;48.768;9.184;2022-12-07T15:27:50;5.80;99.90
27741;DHT22;15134;48.768;9.184;2022-12-07T15:30:16;5.70;99.90
27741;DHT22;15134;48.768;9.184;2022-12-07T15:32:44;5.70;99.90
27741;DHT22;15134;48.768;9.184;2022-12-07T15:35:14;5.70;99.90
27741;DHT22;15134;48.768;9.184;2022-12-07T15:37:40;5.70;99.90
27741;DHT22;15134;48.768;9.184;2022-12-07T15:40:06;5.70;99.90
27741;DHT22;15134;48.768;9.184;2022-12-07T15:42:32;5.70;99.90
27741;DHT22;15134;48.768;9.184;2022-12-07T15:45:00;5.70;99.90
27741;DHT22;15134;48.768;9.184;2022-12-07T15:47:30;5.70;99.90
27741;DHT22;15134;48.768;9.184;2022-12-07T15:49:56;5.70;99.90
27741;DHT22;15134;48.768;9.184;2022-12-07T15:52:21;5.70;99.90
27741;DHT22;15134;48.768;9.184;2022-12-07T15:54:48;5.60;99.90
27741;DHT22;15134;48.768;9.184;2022-12-07T15:57:14;5.50;99.90
27741;DHT22;15134;48.768;9.184;2022-12-07T15:59:40;5.50;99.90
27741;DHT22;15134;48.768;9.184;2022-12-07T16:02:06;5.50;99.90
27741;DHT22;15134;48.768;9.184;2022-12-07T16:04:33;5.50;99.90
27741;DHT22;15134;48.768;9.184;2022-12-07T16:06:58;5.50;99.90
27741;DHT22;15134;48.768;9.184;2022-12-07T16:09:24;5.50;99.90
27741;DHT22;15134;48.768;9.184;2022-12-07T16:11:50;5.50;99.90
27741;DHT22;15134;48.768;9.184;2022-12-07T16:14:17;5.50;99.90
27741;DHT22;15134;48.768;9.184;2022-12-07T16:16:43;5.50;99.90
27741;DHT22;15134;48.768;9.184;2022-12-07T16:19:09;5.50;99.90
27741;DHT22;15134;48.768;9.184;2022-12-07T16:21:38;5.50;99.90
27741;DHT22;15134;48.768;9.184;2022-12-07T16:24:04;5.50;99.90
27741;DHT22;15134;48.768;9.184;2022-12-07T16:26:30;5.40;99.90
27741;DHT22;15134;48.768;9.184;2022-12-07T16:28:57;5.40;99.90
27741;DHT22;15134;48.768;9.184;2022-12-07T16:31:27;5.40;99.90
27741;DHT22;15134;48.768;9.184;2022-12-07T16:33:54;5.40;99.90
27741;DHT22;15134;48.768;9.184;2022-12-07T16:36:21;5.40;99.90
27741;DHT22;15134;48.768;9.184;2022-12-07T16:38:48;5.40;99.90
27741;DHT22;15134;48.768;9.184;2022-12-07T16:41:13;5.40;99.90
27741;DHT22;15134;48.768;9.184;2022-12-07T16:43:39;5.30;99.90
27741;DHT22;15134;48.768;9.184;2022-12-07T16:46:08;5.30;99.90
27741;DHT22;15134;48.768;9.184;2022-12-07T16:48:36;5.30;99.90
27741;DHT22;15134;48.768;9.184;2022-12-07T16:51:08;5.30;99.90
27741;DHT22;15134;48.768;9.184;2022-12-07T16:53:36;5.30;99.90
27741;DHT22;15134;48.768;9.184;2022-12-07T16:56:02;5.20;99.90
27741;DHT22;15134;48.768;9.184;2022-12-07T16:58:28;5.20;99.90
27741;DHT22;15134;48.768;9.184;2022-12-07T17:00:57;5.20;99.90
27741;DHT22;15134;48.768;9.184;2022-12-07T17:03:23;5.20;99.90
27741;DHT22;15134;48.768;9.184;2022-12-07T17:05:48;5.10;99.90
27741;DHT22;15134;48.768;9.184;2022-12-07T17:08:15;5.10;99.90
27741;DHT22;15134;48.768;9.184;2022-12-07T17:10:45;5.00;99.90
27741;DHT22;15134;48.768;9.184;2022-12-07T17:13:13;5.00;99.90
27741;DHT22;15134;48.768;9.184;2022-12-07T17:16:03;5.00;99.90
27741;DHT22;15134;48.768;9.184;2022-12-07T17:18:31;4.90;99.90
27741;DHT22;15134;48.768;9.184;2022-12-07T17:21:06;4.90;99.90
27741;DHT22;15134;48.768;9.184;2022-12-07T17:23:33;4.80;99.90
27741;DHT22;15134;48.768;9.184;2022-12-07T17:26:10;4.80;99.90
27741;DHT22;15134;48.768;9.184;2022-12-07T17:28:36;4.70;99.90
27741;DHT22;15134;48.768;9.184;2022-12-07T17:31:07;4.70;99.90
27741;DHT22;15134;48.768;9.184;2022-12-07T17:33:34;4.70;99.90
27741;DHT22;15134;48.768;9.184;2022-12-07T17:36:14;4.70;99.90
27741;DHT22;15134;48.768;9.184;2022-12-07T17:38:40;4.80;99.90
27741;DHT22;15134;48.768;9.184;2022-12-07T17:41:15;4.80;99.90
27741;DHT22;15134;48.768;9.184;2022-12-07T17:44:00;4.80;99.90
27741;DHT22;15134;48.768;9.184;2022-12-07T17:46:27;4.80;99.90
27741;DHT22;15134;48.768;9.184;2022-12-07T17:48:56;4.80;99.90
27741;DHT22;15134;48.768;9.184;2022-12-07T17:51:23;4.80;99.90
27741;DHT22;15134;48.768;9.184;2022-12-07T17:54:08;4.80;99.90
27741;DHT22;15134;48.768;9.184;2022-12-07T17:56:36;4.80;99.90
27741;DHT22;15134;48.768;9.184;2022-12-07T17:59:02;4.80;99.90
27741;DHT22;15134;48.768;9.184;2022-12-07T18:01:28;4.80;99.90
27741;DHT22;15134;48.768;9.184;2022-12-07T18:04:00;4.80;99.90
27741;DHT22;15134;48.768;9.184;2022-12-07T18:06:25;4.80;99.90